Alkol, West Virginia
Current Conditions -  °F | °C
As of 11:54 AM on Tuesday 27 Jan 2015 (Local Time) from KCRW Reporting Station
Light Snow Light Snow  
Wind Chill: 21°   Ceiling: 2000
Heat Index: 21°   Visibility: 7mi
Dew Point: 13°   Wind: 3mph
Humidity: 71%   Direction: NA
Pressure: 30.01"   Gusts: NA
Location:  38.16°N, 81.92°W
Report Text: KCRW 271654Z VRB03KT 7SM -SN OVC020 M06/M11 A3001 RMK AO2 SLP173 BINOVC P0000 T10611106
Loading
Personal Weather Stations






























Interactive Weather Map New forecast layout! Learn more

10-Day Weather Forecast

Advertisements
Track Severe Weather on mobile